Nearby METAR Reports

 

EGDY - Yeovilton (navy), United Kingdom
Distance from station: NNW 26mi, 42km
Updated: 21/06/2021 01:50
Overcast
Overcast
 Wind from NE
Wind: NE 16 mph , 26 km/h
Temperature: 14°C
Dew Point: 12°C
Humidity: 88%
Barometer: 1008 hPa
Clouds: Overcast
Visibility: 6 miles , 10 km
Cloud details: Overcast 183 m
2021/06/20 23:50 EGDY 202350Z AUTO 04014KT 9999 OVC006/// 14/12 Q1008
EGHH - Bournemouth Airp, United Kingdom
Distance from station: ENE 28mi, 45km
Updated: 20/06/2021 21:20
NOT Current
Partly cloudy
Partly cloudy
 Wind from NE
Wind: NE 9 mph , 15 km/h
Temperature: 17°C
Dew Point: 14°C
Humidity: 83%
Barometer: 1007 hPa
Clouds: Partly cloudy
Visibility: 6 miles , 10 km
Cloud details: Few Clouds 274 m
Partly cloudy 427 m
2021/06/20 19:20 EGHH 201920Z 05008KT 9999 FEW009 SCT014 17/14 Q1007
 
EGTE - Exeter Airport, United Kingdom
Distance from station: W 43mi, 70km
Updated: 20/06/2021 21:50
NOT Current
Mist, Partly cloudy
Mist, Partly cloudy
 Wind from N
Wind: N 8 mph , 13 km/h
Temperature: 15°C
Dew Point: 14°C
Humidity: 94%
Barometer: 1007 hPa
Summary: Mist
Clouds: Partly cloudy
Visibility: 3 miles , 5 km
Cloud details: Few Clouds 91 m
Partly cloudy 366 m
2021/06/20 19:50 EGTE 201950Z 01007KT 5000 BR FEW003 SCT012 15/14 Q1007 RESHRA
EGDM - Boscombe Down, United Kingdom
Distance from station: NE 47mi, 76km
Updated: 21/06/2021 01:50
Overcast
Overcast
 Wind from NE
Wind: NE 14 mph , 22 km/h
Temperature: 13°C
Dew Point: 12°C
Humidity: 94%
Barometer: 1009 hPa
Clouds: Overcast
Visibility: 6 miles , 10 km
Cloud details: Overcast 152 m
2021/06/20 23:50 EGDM 202350Z AUTO 05012KT 9999 OVC005/// 13/12 Q1009
 
EGVP - Middle Wallop, United Kingdom
Distance from station: NE 51mi, 82km
Updated: 21/06/2021 01:50
Overcast
Overcast
 Wind from NE
Wind: NE 14 mph , 22 km/h
Temperature: 14°C
Dew Point: 12°C
Humidity: 88%
Barometer: 1009 hPa
Clouds: Overcast
Visibility: 6 miles , 10 km
Cloud details: Overcast 183 m
2021/06/20 23:50 EGVP 202350Z AUTO 04012KT 9999 OVC006/// 14/12 Q1009
EGGD - Bristol/Lulsgate, United Kingdom
Distance from station: NNW 52mi, 83km
Updated: 21/06/2021 02:20
Overcast
Overcast
 Wind from NNE
Wind: NNE 15 mph , 24 km/h
Temperature: 12°C
Dew Point: 11°C
Humidity: 94%
Barometer: 1009 hPa
Clouds: Overcast
Visibility: 6 miles , 10 km
Cloud details: Overcast 183 m
2021/06/21 00:20 EGGD 210020Z AUTO 03013KT 9999 OVC006 12/11 Q1009
 
EGHI - Southampton Wx C, United Kingdom
Distance from station: ENE 52mi, 84km
Updated: 20/06/2021 23:20
NOT Current
Partly cloudy
Partly cloudy
 Wind from NNE
Wind: NNE 8 mph , 13 km/h
Temperature: 16°C
Dew Point: 14°C
Humidity: 88%
Barometer: 1008 hPa
Clouds: Partly cloudy
Visibility: 6 miles , 10 km
Cloud details: Partly cloudy 610 m
2021/06/20 21:20 EGHI 202120Z 02007KT 350V080 9999 SCT020 16/14 Q1008
EGJA - Alderney/Channel, United Kingdom
Distance from station: S 65mi, 104km
Updated: 20/06/2021 20:20
NOT Current
Few Clouds
Few Clouds
 Wind from ENE
Wind: ENE 15 mph , 24 km/h
Temperature: 15°C
Dew Point: 13°C
Humidity: 88%
Barometer: 1006 hPa
Clouds: Few Clouds
Visibility: 6 miles , 10 km
Cloud details: Few Clouds 1372 m
2021/06/20 18:20 EGJA 201820Z 07013KT 9999 FEW045 15/13 Q1006
 
EGFF - Cardiff-Wales Ar, United Kingdom
Distance from station: NW 65mi, 105km
Updated: 21/06/2021 02:20
Few Clouds
Few Clouds
 Wind from NE
Wind: NE 15 mph , 24 km/h
Temperature: 13°C
Dew Point: 11°C
Humidity: 88%
Barometer: 1009 hPa
Clouds: Few Clouds
Visibility: 6 miles , 10 km
Cloud details: Few Clouds 579 m
2021/06/21 00:20 EGFF 210020Z AUTO 05013KT 9999 FEW019 13/11 Q1009
EGVA - Fairford Raf, United Kingdom
Distance from station: NNE 77mi, 123km
Updated: 21/06/2021 01:56
Overcast
Overcast
 Wind from NE
Wind: NE 12 mph , 19 km/h
Temperature: 12°C
Dew Point: 12°C
Humidity: 100%
Barometer: 1009.5 hPa
Clouds: Overcast
Visibility: 6 miles , 10 km
Cloud details: Overcast 244 m
2021/06/20 23:56 EGVA 202356Z AUTO 05010KT 9999 OVC008 12/12 A2981 RMK AO2 SLP098 T01240122 10135 20123 401460120 58001 VISNO RWY09 $